Time;durP1;ratioP1;P1;durP2;ratioP2;P2;SDS_P1;SDS_P2;PMS_P1;PMS_P2;Temp;Humidity;BMP_temperature;BMP_pressure;BME280_temperature;BME280_humidity;BME280_pressure;Samples;Min_cycle;Max_cycle;Signal;HPM_P1;HPM_P2
2023/10/28 00:00:29;;;;;;;0.32;0.32;;;;;;;19.01;55.04;99489.72;5080137;28;20132;-70
2023/10/28 00:02:54;;;;;;;0.28;0.28;;;;;;;19.00;55.22;99499.03;5074926;28;20040;-69
2023/10/28 00:05:19;;;;;;;0.20;0.20;;;;;;;19.08;54.94;99497.47;5072186;28;20039;-71
2023/10/28 00:07:46;;;;;;;0.20;0.20;;;;;;;19.07;54.51;99490.38;5072185;28;20051;-71
2023/10/28 00:10:13;;;;;;;0.20;0.20;;;;;;;19.04;54.74;99491.84;5072451;28;20033;-71
2023/10/28 00:12:39;;;;;;;0.30;0.30;;;;;;;18.99;54.80;99491.16;5071897;28;20546;-70
2023/10/28 00:15:04;;;;;;;0.30;0.30;;;;;;;18.95;54.86;99488.25;5071854;28;20060;-69
2023/10/28 00:17:30;;;;;;;0.30;0.30;;;;;;;19.10;54.69;99489.78;5053660;28;20115;-70
2023/10/28 00:19:55;;;;;;;0.20;0.20;;;;;;;19.01;54.79;99486.19;5067272;28;20040;-70
2023/10/28 00:22:21;;;;;;;0.30;0.30;;;;;;;18.89;55.05;99497.66;5053714;28;20516;-70
2023/10/28 00:24:47;;;;;;;0.15;0.15;;;;;;;18.95;55.00;99501.06;5052148;28;20059;-70
2023/10/28 00:27:12;;;;;;;0.15;0.15;;;;;;;18.95;54.63;99507.31;5051554;28;20416;-70
2023/10/28 00:29:38;;;;;;;0.30;0.30;;;;;;;19.04;54.65;99513.63;5051411;28;20111;-69
2023/10/28 00:32:05;;;;;;;0.28;0.28;;;;;;;18.87;54.93;99505.34;5051309;28;20037;-69
2023/10/28 00:34:32;;;;;;;0.20;0.20;;;;;;;18.95;54.84;99511.94;5051520;28;20137;-70
2023/10/28 00:36:58;;;;;;;0.25;0.25;;;;;;;18.85;55.18;99514.97;5051955;28;20025;-69
2023/10/28 00:39:23;;;;;;;0.20;0.20;;;;;;;18.73;55.53;99514.72;5051376;28;20044;-70
2023/10/28 00:41:49;;;;;;;0.20;0.20;;;;;;;18.76;55.62;99520.34;5063536;28;20090;-70
2023/10/28 00:44:15;;;;;;;0.30;0.30;;;;;;;18.79;55.64;99513.47;5063973;28;20041;-70
2023/10/28 00:46:41;;;;;;;0.20;0.20;;;;;;;18.69;56.38;99516.47;5051036;28;20045;-69
2023/10/28 00:49:07;;;;;;;0.20;0.20;;;;;;;18.47;57.59;99519.19;5050137;28;20350;-70
2023/10/28 00:51:33;;;;;;;0.20;0.20;;;;;;;18.56;56.64;99522.75;5051270;28;20033;-70
2023/10/28 00:53:59;;;;;;;0.20;0.20;;;;;;;18.71;56.22;99525.13;5051320;28;20044;-70
2023/10/28 00:56:25;;;;;;;0.20;0.20;;;;;;;18.88;55.91;99522.50;5051201;28;20492;-70
2023/10/28 00:58:52;;;;;;;0.20;0.20;;;;;;;18.50;57.11;99519.34;5051256;28;20029;-71
2023/10/28 01:01:19;;;;;;;0.10;0.10;;;;;;;18.53;57.03;99507.88;5051388;28;20031;-69
2023/10/28 01:03:45;;;;;;;0.10;0.10;;;;;;;18.87;56.21;99518.97;5051033;28;20103;-70
2023/10/28 01:06:12;;;;;;;0.30;0.30;;;;;;;18.30;57.53;99514.38;5050887;28;20041;-70
2023/10/28 01:08:38;;;;;;;0.15;0.15;;;;;;;18.57;57.00;99518.94;5050878;28;20033;-70
2023/10/28 01:11:04;;;;;;;0.30;0.30;;;;;;;18.63;56.67;99523.13;5051109;28;20349;-70
2023/10/28 01:13:30;;;;;;;0.40;0.40;;;;;;;18.25;57.52;99526.19;5038425;28;20041;-70
2023/10/28 01:15:55;;;;;;;0.30;0.30;;;;;;;18.58;56.53;99525.97;5051232;28;20033;-70
2023/10/28 01:18:21;;;;;;;0.30;0.30;;;;;;;18.54;56.65;99522.25;5050560;28;20044;-70
2023/10/28 01:20:47;;;;;;;0.30;0.30;;;;;;;18.51;56.92;99517.44;5065069;28;20118;-70
2023/10/28 01:23:12;;;;;;;0.30;0.30;;;;;;;18.25;57.92;99520.75;5070672;28;20051;-69
2023/10/28 01:25:37;;;;;;;0.32;0.32;;;;;;;18.36;57.72;99511.22;5070810;28;20453;-70
2023/10/28 01:28:04;;;;;;;0.28;0.28;;;;;;;18.17;58.48;99507.06;5071281;28;20035;-69
2023/10/28 01:30:29;;;;;;;0.20;0.20;;;;;;;18.06;58.83;99502.97;5070306;28;20489;-70
2023/10/28 01:32:54;;;;;;;0.30;0.30;;;;;;;18.31;57.58;99507.81;5070450;28;20040;-69
2023/10/28 01:35:20;;;;;;;0.25;0.25;;;;;;;18.36;57.27;99505.78;5070182;28;20037;-70
2023/10/28 01:37:45;;;;;;;0.20;0.20;;;;;;;18.75;55.86;99507.06;5070557;28;20102;-69
2023/10/28 01:40:14;;;;;;;0.30;0.30;;;;;;;18.25;57.48;99503.63;5070887;28;20408;-70
2023/10/28 01:42:40;;;;;;;0.30;0.30;;;;;;;18.52;57.09;99498.09;5080215;28;20496;-70
2023/10/28 01:45:09;;;;;;;0.30;0.30;;;;;;;18.47;56.71;99495.50;5077741;28;20440;-69
2023/10/28 01:47:34;;;;;;;0.20;0.20;;;;;;;18.29;58.01;99501.88;5069972;28;20079;-70
2023/10/28 01:50:00;;;;;;;0.30;0.30;;;;;;;18.35;57.22;99506.09;5051671;28;20150;-70
2023/10/28 01:52:25;;;;;;;0.32;0.32;;;;;;;18.07;58.04;99504.56;5070428;28;20116;-70
2023/10/28 01:54:51;;;;;;;0.17;0.17;;;;;;;18.33;56.71;99514.56;5070525;28;20064;-70
2023/10/28 01:57:17;;;;;;;0.22;0.22;;;;;;;18.29;57.46;99507.34;5070094;28;20119;-70
2023/10/28 01:59:44;;;;;;;0.20;0.20;;;;;;;18.17;57.37;99498.91;5051706;28;20461;-70
2023/10/28 02:02:10;;;;;;;0.20;0.20;;;;;;;18.44;56.55;99507.00;5051585;28;20037;-70
2023/10/28 02:04:36;;;;;;;0.30;0.30;;;;;;;18.35;57.80;99500.66;5070054;28;20032;-70
2023/10/28 02:07:02;;;;;;;0.28;0.28;;;;;;;18.18;58.50;99504.03;5070952;28;20020;-70
2023/10/28 02:09:28;;;;;;;0.30;0.30;;;;;;;18.63;56.80;99504.91;5069922;28;20028;-69
2023/10/28 02:11:54;;;;;;;0.10;0.10;;;;;;;18.74;56.45;99503.53;5070108;28;20449;-69
2023/10/28 02:14:20;;;;;;;0.20;0.20;;;;;;;18.23;58.54;99500.41;5069945;28;20144;-70
2023/10/28 02:16:45;;;;;;;0.30;0.30;;;;;;;18.85;56.70;99504.06;5069774;28;20063;-69
2023/10/28 02:19:10;;;;;;;0.20;0.20;;;;;;;18.77;56.37;99508.31;5073752;28;20392;-70
2023/10/28 02:21:36;;;;;;;0.30;0.30;;;;;;;18.82;56.95;99500.03;5076725;28;20033;-70
2023/10/28 02:24:03;;;;;;;0.30;0.30;;;;;;;18.92;56.15;99507.94;5076606;28;20104;-70
2023/10/28 02:26:29;;;;;;;0.30;0.30;;;;;;;19.10;55.85;99504.19;5076790;28;20032;-70
2023/10/28 02:28:55;;;;;;;0.20;0.20;;;;;;;19.11;56.29;99502.25;5076952;28;20060;-70
2023/10/28 02:31:20;;;;;;;0.20;0.20;;;;;;;19.30;55.60;99508.28;5076637;28;20124;-69
2023/10/28 02:33:45;;;;;;;0.20;0.20;;;;;;;19.24;55.74;99501.38;5076107;28;20037;-69
2023/10/28 02:36:11;;;;;;;0.30;0.30;;;;;;;19.35;55.44;99502.72;5076464;28;20041;-69
2023/10/28 02:38:36;;;;;;;0.30;0.30;;;;;;;19.24;55.43;99504.09;5084007;28;20048;-69
2023/10/28 02:41:05;;;;;;;0.30;0.30;;;;;;;19.35;55.55;99504.63;5086863;28;20036;-70
2023/10/28 02:43:30;;;;;;;0.15;0.15;;;;;;;19.07;56.93;99510.25;5076546;28;20099;-69
2023/10/28 02:45:56;;;;;;;0.30;0.30;;;;;;;18.95;57.35;99511.94;5076634;28;20021;-71
2023/10/28 02:48:21;;;;;;;0.25;0.25;;;;;;;19.39;56.17;99505.63;5076055;28;20033;-69
2023/10/28 02:50:46;;;;;;;0.30;0.30;;;;;;;19.58;55.23;99504.22;5076319;28;20149;-70
2023/10/28 02:53:12;;;;;;;0.20;0.20;;;;;;;19.61;55.29;99503.63;5076320;28;20060;-70
2023/10/28 02:55:37;;;;;;;0.30;0.30;;;;;;;19.58;55.48;99500.69;5076122;28;20447;-69
2023/10/28 02:58:04;;;;;;;0.15;0.15;;;;;;;19.63;54.95;99495.94;5076659;28;20024;-70
2023/10/28 03:00:30;;;;;;;0.10;0.10;;;;;;;19.46;55.47;99504.03;5076397;28;20407;-70
2023/10/28 03:02:57;;;;;;;0.20;0.20;;;;;;;19.46;56.32;99503.25;5076035;28;20036;-69
2023/10/28 03:05:24;;;;;;;0.13;0.13;;;;;;;19.72;55.12;99495.91;5058583;28;20041;-70
2023/10/28 03:07:49;;;;;;;0.20;0.20;;;;;;;19.72;55.38;99487.75;5058412;28;20029;-70
2023/10/28 03:10:15;;;;;;;0.20;0.20;;;;;;;19.65;55.88;99503.78;5076591;28;20028;-70
2023/10/28 03:12:40;;;;;;;0.20;0.20;;;;;;;19.72;55.18;99496.72;5057720;28;20039;-70
2023/10/28 03:15:08;;;;;;;0.20;0.20;;;;;;;19.85;54.82;99503.19;5075964;28;20058;-70
2023/10/28 03:17:34;;;;;;;0.20;0.20;;;;;;;19.85;55.01;99503.97;5075666;28;20098;-70
2023/10/28 03:19:59;;;;;;;0.17;0.17;;;;;;;19.70;55.20;99507.16;5075947;28;20048;-70
2023/10/28 03:22:25;;;;;;;0.20;0.20;;;;;;;19.63;56.00;99504.09;5076318;28;20073;-69
2023/10/28 03:24:51;;;;;;;0.10;0.10;;;;;;;19.56;56.20;99506.47;5076440;28;20016;-70
2023/10/28 03:27:17;;;;;;;0.20;0.20;;;;;;;19.83;55.28;99503.47;5075823;28;20031;-70
2023/10/28 03:29:44;;;;;;;0.28;0.28;;;;;;;19.24;57.14;99504.88;5075511;28;20039;-69
2023/10/28 03:32:10;;;;;;;0.30;0.30;;;;;;;19.75;56.03;99503.47;5072748;28;20028;-69
2023/10/28 03:34:35;;;;;;;0.30;0.30;;;;;;;19.51;56.31;99506.63;5077808;28;20028;-70
2023/10/28 03:37:00;;;;;;;0.10;0.10;;;;;;;19.92;55.24;99507.03;5085920;28;20047;-70
2023/10/28 03:39:26;;;;;;;0.20;0.20;;;;;;;19.87;55.46;99503.66;5072755;28;20035;-70
2023/10/28 03:41:51;;;;;;;0.20;0.20;;;;;;;19.83;55.16;99499.97;5072470;28;20037;-70
2023/10/28 03:44:16;;;;;;;0.20;0.20;;;;;;;19.64;55.86;99505.69;5072535;28;20435;-70
2023/10/28 03:46:42;;;;;;;0.20;0.20;;;;;;;19.52;57.13;99507.44;5072298;28;20036;-70
2023/10/28 03:49:07;;;;;;;0.20;0.20;;;;;;;19.33;57.80;99513.13;5072961;28;20472;-70
2023/10/28 03:51:34;;;;;;;0.10;0.10;;;;;;;19.01;58.96;99507.97;5072521;28;20043;-70
2023/10/28 03:54:00;;;;;;;0.20;0.20;;;;;;;19.25;58.67;99508.41;5072328;28;20032;-70
2023/10/28 03:56:26;;;;;;;0.22;0.22;;;;;;;19.82;56.44;99511.97;5072409;28;20082;-71
2023/10/28 03:58:51;;;;;;;0.20;0.20;;;;;;;19.66;56.76;99513.53;5072088;28;20036;-70
2023/10/28 04:01:17;;;;;;;0.20;0.20;;;;;;;19.77;56.31;99503.97;5068014;28;20035;-69
2023/10/28 04:03:42;;;;;;;0.20;0.20;;;;;;;19.50;57.62;99515.91;5051660;28;20040;-69
2023/10/28 04:06:07;;;;;;;0.25;0.25;;;;;;;19.64;57.50;99505.69;5055938;28;20082;-70
2023/10/28 04:08:33;;;;;;;0.20;0.20;;;;;;;19.29;58.66;99512.94;5066836;28;20040;-70
2023/10/28 04:10:59;;;;;;;0.20;0.20;;;;;;;19.85;56.97;99505.91;5057603;28;20131;-69
2023/10/28 04:13:24;;;;;;;0.20;0.20;;;;;;;19.93;56.18;99507.84;5071513;28;20435;-69
2023/10/28 04:15:49;;;;;;;0.10;0.10;;;;;;;19.76;56.95;99514.06;5072188;28;20587;-69
2023/10/28 04:18:15;;;;;;;0.30;0.30;;;;;;;19.75;56.94;99506.22;5070947;28;20036;-70
2023/10/28 04:20:40;;;;;;;0.20;0.20;;;;;;;19.47;57.89;99513.81;5071608;28;20602;-71
2023/10/28 04:23:06;;;;;;;0.13;0.13;;;;;;;19.27;59.13;99514.34;5071782;28;20035;-70
2023/10/28 04:25:31;;;;;;;0.30;0.30;;;;;;;18.83;60.24;99517.19;5071821;28;20027;-69
2023/10/28 04:27:57;;;;;;;0.30;0.30;;;;;;;19.10;59.76;99517.00;5072586;28;20456;-71
2023/10/28 04:30:22;;;;;;;0.30;0.30;;;;;;;19.59;57.66;99503.13;5073182;28;20043;-70
2023/10/28 04:32:48;;;;;;;0.10;0.10;;;;;;;18.94;59.70;99518.53;5088090;28;20195;-70
2023/10/28 04:35:15;;;;;;;0.20;0.20;;;;;;;19.40;58.39;99510.75;5071302;28;20102;-71
2023/10/28 04:37:40;;;;;;;0.20;0.20;;;;;;;19.75;57.02;99512.44;5071491;28;20880;-70
2023/10/28 04:40:06;;;;;;;0.20;0.20;;;;;;;19.46;57.72;99509.47;5071736;28;20032;-70
2023/10/28 04:42:32;;;;;;;0.20;0.20;;;;;;;19.15;59.25;99511.41;5070112;28;20045;-70
2023/10/28 04:44:57;;;;;;;0.20;0.20;;;;;;;19.21;58.79;99507.44;5070352;28;20039;-71
2023/10/28 04:47:24;;;;;;;0.30;0.30;;;;;;;19.39;58.33;99513.78;5071253;28;20040;-70
2023/10/28 04:49:49;;;;;;;0.15;0.15;;;;;;;19.80;57.27;99506.03;5071463;28;20044;-70
2023/10/28 04:52:15;;;;;;;0.20;0.20;;;;;;;19.48;57.99;99512.69;5071950;28;20734;-70
2023/10/28 04:54:40;;;;;;;0.28;0.28;;;;;;;19.68;57.68;99509.38;5071233;28;20041;-69
2023/10/28 04:57:05;;;;;;;0.25;0.25;;;;;;;19.54;58.41;99513.34;5071280;28;20047;-70
2023/10/28 04:59:31;;;;;;;0.28;0.28;;;;;;;19.15;59.47;99504.06;5071152;28;20390;-69
2023/10/28 05:01:56;;;;;;;0.20;0.20;;;;;;;19.76;57.46;99505.06;5070918;28;20037;-70
2023/10/28 05:04:24;;;;;;;0.20;0.20;;;;;;;19.07;59.60;99520.34;5070699;28;20039;-69
2023/10/28 05:06:50;;;;;;;0.20;0.20;;;;;;;19.38;58.75;99512.97;5070711;28;20013;-70
2023/10/28 05:09:15;;;;;;;0.20;0.20;;;;;;;19.62;58.13;99515.28;5070144;28;20040;-69
2023/10/28 05:11:42;;;;;;;0.13;0.13;;;;;;;19.34;58.97;99512.00;5070429;28;20400;-70
2023/10/28 05:14:10;;;;;;;0.28;0.28;;;;;;;19.24;58.64;99513.06;5070222;28;20530;-70
2023/10/28 05:16:36;;;;;;;0.30;0.30;;;;;;;19.18;59.79;99516.25;5069926;28;20032;-71
2023/10/28 05:19:01;;;;;;;0.15;0.15;;;;;;;19.20;59.38;99511.28;5070314;28;20024;-70
2023/10/28 05:21:27;;;;;;;0.20;0.20;;;;;;;19.54;57.73;99511.44;5050068;28;20040;-70
2023/10/28 05:23:52;;;;;;;0.20;0.20;;;;;;;19.62;58.00;99512.56;5050237;28;20037;-70
2023/10/28 05:26:18;;;;;;;0.10;0.10;;;;;;;19.32;58.92;99508.75;5050236;28;20044;-71
2023/10/28 05:28:46;;;;;;;0.20;0.20;;;;;;;19.00;59.87;99515.38;5049550;28;20388;-71
2023/10/28 05:31:12;;;;;;;0.20;0.20;;;;;;;19.16;59.76;99515.75;5050787;28;20037;-70
2023/10/28 05:33:37;;;;;;;0.25;0.25;;;;;;;19.53;58.62;99514.47;5049641;28;20116;-69
2023/10/28 05:36:05;;;;;;;0.22;0.22;;;;;;;19.40;58.31;99518.13;5049750;28;20040;-69
2023/10/28 05:38:31;;;;;;;0.13;0.13;;;;;;;19.38;58.73;99517.66;5049803;28;20025;-70
2023/10/28 05:40:57;;;;;;;0.30;0.30;;;;;;;19.36;58.44;99512.50;5049999;28;20033;-71
2023/10/28 05:43:22;;;;;;;0.17;0.17;;;;;;;19.82;57.44;99515.53;5049855;28;20084;-70
2023/10/28 05:45:48;;;;;;;0.20;0.20;;;;;;;19.62;58.18;99516.09;5050929;28;20028;-70
2023/10/28 05:48:13;;;;;;;0.20;0.20;;;;;;;19.09;59.74;99515.38;5050389;28;20049;-70
2023/10/28 05:50:39;;;;;;;0.20;0.20;;;;;;;18.82;60.87;99521.81;5050519;28;20179;-70
2023/10/28 05:53:05;;;;;;;0.20;0.20;;;;;;;19.17;59.45;99520.06;5049696;28;20037;-70
2023/10/28 05:55:30;;;;;;;0.30;0.30;;;;;;;19.27;58.67;99528.78;5050284;28;20461;-70
2023/10/28 05:57:56;;;;;;;0.30;0.30;;;;;;;19.55;58.76;99525.88;5050678;28;20526;-70
2023/10/28 06:00:21;;;;;;;0.10;0.10;;;;;;;19.27;58.46;99525.25;5050461;28;20037;-70
2023/10/28 06:02:46;;;;;;;0.10;0.10;;;;;;;18.90;59.25;99531.16;5050203;28;20041;-70
2023/10/28 06:05:12;;;;;;;0.20;0.20;;;;;;;18.39;61.93;99531.56;5050160;28;20040;-70
2023/10/28 06:07:37;;;;;;;0.20;0.20;;;;;;;19.01;60.71;99529.75;5050307;28;20102;-70
2023/10/28 06:10:07;;;;;;;0.10;0.10;;;;;;;19.28;59.30;99524.94;5051105;28;20595;-71
2023/10/28 06:12:32;;;;;;;0.30;0.30;;;;;;;18.74;61.14;99522.56;5050307;28;20485;-70
2023/10/28 06:14:58;;;;;;;0.20;0.20;;;;;;;19.86;57.29;99521.13;5050121;28;20041;-69
2023/10/28 06:17:24;;;;;;;0.10;0.10;;;;;;;18.92;59.10;99520.75;5028549;28;20448;-70
2023/10/28 06:19:50;;;;;;;0.20;0.20;;;;;;;19.38;58.11;99523.88;5036629;28;20373;-71
2023/10/28 06:22:15;;;;;;;0.20;0.20;;;;;;;19.79;56.76;99526.25;5050224;28;20025;-70
2023/10/28 06:24:41;;;;;;;0.10;0.10;;;;;;;18.92;58.60;99528.91;5082498;28;20424;-69
2023/10/28 06:27:07;;;;;;;0.10;0.10;;;;;;;19.28;57.37;99530.38;5071140;28;20052;-70
2023/10/28 06:29:32;;;;;;;0.20;0.20;;;;;;;19.63;56.50;99528.63;5070131;28;20735;-71
2023/10/28 06:31:58;;;;;;;0.20;0.20;;;;;;;18.96;58.13;99529.91;5070093;28;20135;-70
2023/10/28 06:34:27;;;;;;;0.20;0.20;;;;;;;19.51;56.73;99530.34;5069747;28;20488;-70
2023/10/28 06:36:53;;;;;;;0.20;0.20;;;;;;;19.67;55.83;99529.59;5070313;28;20109;-71
2023/10/28 06:39:18;;;;;;;0.22;0.22;;;;;;;19.28;57.22;99538.56;5069986;28;20044;-71
2023/10/28 06:41:44;;;;;;;0.10;0.10;;;;;;;19.53;56.25;99537.09;5069870;28;20083;-70
2023/10/28 06:44:09;;;;;;;0.20;0.20;;;;;;;19.67;55.91;99535.06;5069810;28;20055;-70
2023/10/28 06:46:36;;;;;;;0.20;0.20;;;;;;;19.66;56.41;99536.16;5069885;28;20025;-69
2023/10/28 06:49:02;;;;;;;0.20;0.20;;;;;;;19.72;55.87;99537.63;5070136;28;20108;-71
2023/10/28 06:51:27;;;;;;;0.25;0.25;;;;;;;19.79;55.68;99539.91;5069876;28;20032;-70
2023/10/28 06:53:52;;;;;;;0.10;0.10;;;;;;;19.64;56.05;99545.75;5051593;28;20044;-70
2023/10/28 06:56:18;;;;;;;0.10;0.10;;;;;;;19.64;57.39;99543.84;5051835;28;20518;-71
2023/10/28 06:58:43;;;;;;;0.25;0.25;;;;;;;19.92;55.82;99547.13;5051486;28;20037;-71
2023/10/28 07:01:09;;;;;;;0.20;0.20;;;;;;;19.82;55.98;99548.22;5070322;28;20472;-70
2023/10/28 07:03:38;;;;;;;0.20;0.20;;;;;;;19.85;55.93;99553.03;5069695;28;20039;-71
2023/10/28 07:06:09;;;;;;;0.10;0.10;;;;;;;19.89;56.21;99562.19;5072526;28;20524;-72
2023/10/28 07:08:36;;;;;;;0.20;0.20;;;;;;;19.95;55.65;99560.94;5073236;28;20041;-71
2023/10/28 07:11:02;;;;;;;0.20;0.20;;;;;;;19.99;55.48;99558.34;5073318;28;20047;-71
2023/10/28 07:13:27;;;;;;;0.20;0.20;;;;;;;20.04;56.00;99560.94;5073145;28;20034;-69
2023/10/28 07:16:01;;;;;;;0.20;0.20;;;;;;;20.05;56.13;99554.34;5073646;28;20035;-70
2023/10/28 07:18:27;;;;;;;0.20;0.20;;;;;;;20.17;55.80;99567.41;5072892;28;20080;-71
2023/10/28 07:20:52;;;;;;;0.40;0.40;;;;;;;19.77;57.33;99569.41;5072930;28;20427;-70
2023/10/28 07:23:20;;;;;;;0.13;0.13;;;;;;;19.90;57.03;99568.47;5072726;28;20078;-70
2023/10/28 07:25:45;;;;;;;0.10;0.10;;;;;;;20.09;56.47;99560.78;5073220;28;20370;-71
2023/10/28 07:28:12;;;;;;;0.20;0.20;;;;;;;19.85;57.28;99565.91;5073375;28;20036;-70
2023/10/28 07:30:43;;;;;;;0.17;0.17;;;;;;;20.33;55.80;99568.53;5072931;28;20527;-70
2023/10/28 07:33:09;;;;;;;0.25;0.25;;;;;;;20.56;54.86;99573.53;5072771;28;20037;-71
2023/10/28 07:35:34;;;;;;;0.20;0.20;;;;;;;20.25;55.82;99578.34;5072808;28;20033;-70
2023/10/28 07:38:00;;;;;;;0.20;0.20;;;;;;;20.25;56.45;99580.25;5072782;28;20032;-71
2023/10/28 07:40:26;;;;;;;0.20;0.20;;;;;;;19.94;57.53;99575.69;5073221;28;20026;-70
2023/10/28 07:42:51;;;;;;;0.20;0.20;;;;;;;20.22;56.91;99586.38;5073213;28;20717;-71
2023/10/28 07:45:17;;;;;;;0.20;0.20;;;;;;;20.10;56.33;99582.31;5072735;28;20086;-69
2023/10/28 07:47:42;;;;;;;0.20;0.20;;;;;;;20.16;56.45;99582.97;5072525;28;20520;-65
2023/10/28 07:50:08;;;;;;;0.20;0.20;;;;;;;20.52;55.81;99583.47;5072660;28;20028;-66
2023/10/28 07:52:34;;;;;;;0.20;0.20;;;;;;;20.20;56.59;99588.59;5072630;28;20030;-65
2023/10/28 07:55:01;;;;;;;0.15;0.15;;;;;;;20.27;56.78;99594.38;5072943;28;20587;-66
2023/10/28 07:57:26;;;;;;;0.20;0.20;;;;;;;20.74;55.45;99586.06;5072054;28;20028;-66
2023/10/28 07:59:53;;;;;;;0.20;0.20;;;;;;;20.71;55.56;99591.34;5072616;28;20036;-66
2023/10/28 08:02:18;;;;;;;0.10;0.10;;;;;;;20.34;55.90;99589.28;5072280;28;20048;-64
2023/10/28 08:04:44;;;;;;;0.20;0.20;;;;;;;20.71;55.32;99588.63;5072070;28;20127;-65
2023/10/28 08:07:09;;;;;;;0.20;0.20;;;;;;;19.93;58.05;99592.38;5054069;28;20476;-65
2023/10/28 08:09:35;;;;;;;0.30;0.30;;;;;;;19.78;58.46;99584.63;5072059;28;20631;-65
2023/10/28 08:12:00;;;;;;;0.10;0.10;;;;;;;20.34;56.59;99592.00;5072127;28;20040;-65
2023/10/28 08:14:26;;;;;;;0.20;0.20;;;;;;;20.28;56.83;99585.91;5071842;28;20039;-65
2023/10/28 08:16:51;;;;;;;0.20;0.20;;;;;;;20.55;56.14;99591.03;5084713;28;20040;-65
2023/10/28 08:19:17;;;;;;;0.10;0.10;;;;;;;20.74;55.72;99596.97;5076198;28;20032;-65
2023/10/28 08:21:43;;;;;;;0.20;0.20;;;;;;;20.13;57.65;99589.84;5031907;28;20065;-64
2023/10/28 08:24:11;;;;;;;0.17;0.17;;;;;;;21.10;54.99;99587.63;5032055;28;20044;-65
2023/10/28 08:26:37;;;;;;;0.30;0.30;;;;;;;20.68;55.77;99589.25;5031922;28;20037;-64
2023/10/28 08:29:03;;;;;;;0.20;0.20;;;;;;;20.49;57.15;99586.06;5034983;28;20045;-64
2023/10/28 08:31:29;;;;;;;0.20;0.20;;;;;;;20.71;56.20;99592.16;5033219;28;20065;-66
2023/10/28 08:33:54;;;;;;;0.20;0.20;;;;;;;20.99;55.23;99589.91;5031954;28;20036;-65
2023/10/28 08:36:19;;;;;;;0.22;0.22;;;;;;;21.15;54.70;99592.94;5031756;28;20077;-64
2023/10/28 08:38:47;;;;;;;0.20;0.20;;;;;;;21.02;55.54;99593.91;5031584;28;20045;-65
2023/10/28 08:41:16;;;;;;;0.20;0.20;;;;;;;20.00;57.94;99592.72;5031768;28;20136;-65
2023/10/28 08:43:42;;;;;;;0.20;0.20;;;;;;;20.42;57.80;99604.84;5031096;28;20021;-64
2023/10/28 08:46:08;;;;;;;0.10;0.10;;;;;;;20.52;57.55;99610.00;5031265;28;20070;-64
2023/10/28 08:48:37;;;;;;;0.20;0.20;;;;;;;20.84;55.76;99607.56;5011454;28;20212;-63
2023/10/28 08:51:04;;;;;;;0.20;0.20;;;;;;;20.31;58.08;99609.00;5011615;28;20038;-65
2023/10/28 08:53:33;;;;;;;0.30;0.30;;;;;;;20.98;55.78;99607.41;5011298;28;20068;-66
2023/10/28 08:56:01;;;;;;;0.17;0.17;;;;;;;20.51;57.25;99611.91;5011748;28;20045;-65
2023/10/28 08:58:27;;;;;;;0.22;0.22;;;;;;;20.59;56.34;99608.38;5011116;28;20025;-65
2023/10/28 09:00:54;;;;;;;0.20;0.20;;;;;;;20.72;56.00;99612.06;5026695;28;20018;-65
2023/10/28 09:03:22;;;;;;;0.10;0.10;;;;;;;20.42;56.94;99604.84;5030933;28;20053;-65
2023/10/28 09:05:52;;;;;;;0.28;0.28;;;;;;;20.50;56.48;99609.50;5031165;28;20101;-64
2023/10/28 09:08:18;;;;;;;0.20;0.20;;;;;;;20.85;56.26;99614.63;5031290;28;20117;-64
2023/10/28 09:10:45;;;;;;;0.20;0.20;;;;;;;20.54;56.40;99616.72;5031221;28;20120;-64
2023/10/28 09:13:12;;;;;;;0.30;0.30;;;;;;;19.96;57.74;99608.09;5045318;28;20043;-64
2023/10/28 09:15:37;;;;;;;0.10;0.10;;;;;;;20.52;57.12;99618.97;5034270;28;20505;-64
2023/10/28 09:18:03;;;;;;;0.20;0.20;;;;;;;20.29;57.18;99620.22;5030784;28;20053;-65
2023/10/28 09:20:28;;;;;;;0.30;0.30;;;;;;;21.02;56.40;99616.56;5050050;28;20047;-64
2023/10/28 09:22:54;;;;;;;0.20;0.20;;;;;;;20.88;56.17;99624.09;5070675;28;20086;-65
2023/10/28 09:25:21;;;;;;;0.30;0.30;;;;;;;21.35;55.43;99628.56;5071042;28;20037;-64
2023/10/28 09:27:47;;;;;;;0.20;0.20;;;;;;;20.90;56.05;99625.41;5070683;28;20033;-65
2023/10/28 09:30:13;;;;;;;0.20;0.20;;;;;;;21.11;56.10;99633.75;5070719;28;20032;-65
2023/10/28 09:32:39;;;;;;;0.20;0.20;;;;;;;21.21;55.01;99638.09;5070553;28;20067;-65
2023/10/28 09:35:09;;;;;;;0.17;0.17;;;;;;;21.46;55.21;99632.53;5070231;28;20041;-65
2023/10/28 09:37:38;;;;;;;0.20;0.20;;;;;;;20.82;55.97;99631.66;5069758;28;20059;-64
2023/10/28 09:40:10;;;;;;;0.10;0.10;;;;;;;20.29;58.09;99636.59;5070693;28;20024;-64
2023/10/28 09:42:37;;;;;;;0.20;0.20;;;;;;;20.41;57.85;99635.97;5064936;28;20060;-65
2023/10/28 09:45:09;;;;;;;0.20;0.20;;;;;;;20.94;57.02;99631.81;5069779;28;20029;-64
2023/10/28 09:47:53;;;;;;;0.20;0.20;;;;;;;20.56;57.78;99635.53;5069805;28;20055;-65
2023/10/28 09:50:22;;;;;;;0.10;0.10;;;;;;;20.49;58.68;99622.34;5069654;28;20032;-63
2023/10/28 09:52:51;;;;;;;0.20;0.20;;;;;;;21.03;56.35;99625.59;5069750;28;20119;-63
2023/10/28 09:55:20;;;;;;;0.10;0.10;;;;;;;21.72;55.12;99638.72;5069895;28;20025;-65
2023/10/28 09:57:47;;;;;;;0.15;0.15;;;;;;;21.85;54.89;99636.97;5069370;28;20039;-66
2023/10/28 10:00:19;;;;;;;0.28;0.28;;;;;;;21.70;55.49;99637.44;5069717;28;20031;-64
2023/10/28 10:02:59;;;;;;;0.10;0.10;;;;;;;22.11;54.38;99625.88;5069103;28;20042;-64
2023/10/28 10:05:41;;;;;;;0.20;0.20;;;;;;;22.24;54.05;99625.63;5069739;28;20055;-65
2023/10/28 10:08:35;;;;;;;0.20;0.20;;;;;;;22.37;53.30;99615.56;5073495;28;20032;-64
2023/10/28 10:11:00;;;;;;;0.25;0.25;;;;;;;21.57;54.27;99625.63;5076754;28;20036;-64
2023/10/28 10:13:26;;;;;;;0.20;0.20;;;;;;;21.75;55.06;99626.34;5051244;28;20036;-65
2023/10/28 10:16:00;;;;;;;0.13;0.13;;;;;;;20.87;58.15;99623.28;5069778;28;20029;-63
2023/10/28 10:18:42;;;;;;;0.20;0.20;;;;;;;21.83;55.55;99628.28;5069158;28;20028;-65
2023/10/28 10:21:12;;;;;;;0.20;0.20;;;;;;;21.76;56.04;99625.19;5068626;28;20812;-63
2023/10/28 10:23:45;;;;;;;0.20;0.20;;;;;;;21.76;55.50;99627.94;5051266;28;20082;-64
2023/10/28 10:26:31;;;;;;;0.20;0.20;;;;;;;21.46;56.33;99629.81;5067449;28;20029;-64
2023/10/28 10:28:58;;;;;;;0.10;0.10;;;;;;;21.00;56.66;99636.00;5069497;28;20451;-64
2023/10/28 10:31:36;;;;;;;0.20;0.20;;;;;;;21.76;56.11;99625.19;5069572;28;20024;-65
2023/10/28 10:34:07;;;;;;;0.10;0.10;;;;;;;21.88;54.54;99636.28;5068677;28;20132;-66
2023/10/28 10:36:38;;;;;;;0.10;0.10;;;;;;;21.63;56.25;99631.69;5066796;28;20612;-63
2023/10/28 10:39:14;;;;;;;0.20;0.20;;;;;;;22.02;55.25;99616.91;5069920;28;20051;-64
2023/10/28 10:41:41;;;;;;;0.17;0.17;;;;;;;22.26;53.90;99619.81;5073691;28;20086;-63
2023/10/28 10:44:32;;;;;;;0.15;0.15;;;;;;;22.64;53.14;99629.56;5073637;28;20036;-64
2023/10/28 10:46:58;;;;;;;0.20;0.20;;;;;;;21.96;55.24;99623.69;5055385;28;20040;-64
2023/10/28 10:49:24;;;;;;;0.10;0.10;;;;;;;21.91;55.11;99630.16;5073447;28;20028;-64
2023/10/28 10:51:51;;;;;;;0.20;0.20;;;;;;;22.15;55.08;99635.81;5074013;28;20059;-64
2023/10/28 10:54:17;;;;;;;0.10;0.10;;;;;;;22.33;54.24;99631.03;5073579;28;20033;-64
2023/10/28 10:56:43;;;;;;;0.20;0.20;;;;;;;22.22;53.27;99630.63;5074158;28;20044;-63
2023/10/28 10:59:09;;;;;;;0.10;0.10;;;;;;;21.68;56.22;99640.50;5072505;28;20661;-64
2023/10/28 11:01:35;;;;;;;0.20;0.20;;;;;;;22.49;54.70;99623.84;5072834;28;20024;-63
2023/10/28 11:04:02;;;;;;;0.10;0.10;;;;;;;22.32;54.63;99635.72;5073630;28;20033;-65
2023/10/28 11:06:28;;;;;;;0.10;0.10;;;;;;;21.70;56.97;99632.78;5090500;28;20047;-64
2023/10/28 11:08:54;;;;;;;0.20;0.20;;;;;;;22.33;54.94;99628.31;5059881;28;20106;-64
2023/10/28 11:11:19;;;;;;;0.20;0.20;;;;;;;21.60;55.90;99622.22;5072623;28;20357;-64
2023/10/28 11:13:45;;;;;;;0.13;0.13;;;;;;;22.75;54.27;99623.69;5072462;28;20044;-63
2023/10/28 11:16:23;;;;;;;0.10;0.10;;;;;;;23.68;52.32;99626.63;5072879;28;20020;-64
2023/10/28 11:18:48;;;;;;;0.10;0.10;;;;;;;21.80;56.62;99628.88;5072795;28;20051;-63
2023/10/28 11:21:15;;;;;;;0.10;0.10;;;;;;;22.95;52.93;99626.41;5072145;28;20411;-65
2023/10/28 11:23:40;;;;;;;0.10;0.10;;;;;;;23.22;53.06;99628.56;5072017;28;20037;-64
2023/10/28 11:26:06;;;;;;;0.10;0.10;;;;;;;22.42;53.82;99623.59;5072580;28;20035;-64
2023/10/28 11:28:32;;;;;;;0.10;0.10;;;;;;;22.39;53.84;99616.84;5072871;28;20017;-65
2023/10/28 11:30:59;;;;;;;0.10;0.10;;;;;;;22.97;52.95;99620.59;5072661;28;20028;-65